ADDS METAR Data INFO
IDs: Format: Raw Decoded Include TAF

Data at: 0903 UTC 20 Oct 2017

KSDA 200855Z AUTO 00000KT 10SM CLR 12/10 A3002 RMK AO2
KSDA 200835Z AUTO 00000KT 10SM CLR 13/11 A3002 RMK AO2
KSDA 200815Z AUTO 00000KT 10SM CLR 14/11 A3002 RMK AO2
KSDA 200755Z AUTO 18004G11KT 10SM CLR 14/11 A3002 RMK AO2
KSDA 200735Z AUTO 18006KT 10SM CLR 15/11 A3003 RMK AO2
KSDA 200715Z AUTO 18009KT 10SM CLR 15/11 A3003 RMK AO2
KSDA 200655Z AUTO 18009KT 10SM CLR 16/11 A3003 RMK AO2
KSDA 200635Z AUTO 18009G15KT 10SM CLR 16/11 A3002 RMK AO2
KSDA 200615Z AUTO 18007KT 10SM CLR 16/11 A3002 RMK AO2
KSDA 200555Z AUTO 18009G16KT 10SM CLR 16/11 A3002 RMK AO2
KSDA 200535Z AUTO 17011KT 10SM CLR 17/11 A3002 RMK AO2
KSDA 200515Z AUTO 18010G16KT 10SM CLR 18/11 A3002 RMK AO2
KSDA 200455Z AUTO 18011KT 10SM CLR 18/11 A3002 RMK AO2
KSDA 200435Z AUTO 18010KT 10SM CLR 18/11 A3002 RMK AO2
KSDA 200415Z AUTO 18011KT 10SM CLR 18/11 A3001 RMK AO2
KSDA 200355Z AUTO 17010G16KT 10SM CLR 18/11 A3001 RMK AO2
KSDA 200335Z AUTO 18009KT CLR 18/11 A3001 RMK AO2
KSDA 200315Z AUTO 17012KT 10SM CLR 19/11 A3001 RMK AO2
KSDA 200255Z AUTO 16010KT 10SM CLR 19/11 A3001 RMK AO2
KSDA 200235Z AUTO 16008KT 10SM CLR 18/11 A3000 RMK AO2
KSDA 200215Z AUTO 13005KT 10SM CLR 17/11 A3000 RMK AO2
KSDA 200155Z AUTO 12005KT 10SM CLR 17/11 A3000 RMK AO2
KSDA 200135Z AUTO 13005KT 10SM CLR 17/11 A3001 RMK AO2
KSDA 200115Z AUTO 13006KT 10SM CLR 18/11 A3001 RMK AO2
KSDA 200055Z AUTO 14006KT 10SM CLR 18/11 A3001 RMK AO2
KSDA 200035Z AUTO 14007KT 10SM CLR 19/11 A3001 RMK AO2
KSDA 200015Z AUTO 15008KT 10SM CLR 20/11 A3001 RMK AO2
KSDA 192355Z AUTO 16006KT 10SM CLR 21/11 A3001 RMK AO2
KSDA 192335Z AUTO 16007KT 10SM CLR 22/11 A3000 RMK AO2
KSDA 192315Z AUTO 16008KT 10SM CLR 24/11 A3000 RMK AO2
KSDA 192255Z AUTO 16007KT 10SM CLR 25/11 A3000 RMK AO2
KSDA 192235Z AUTO 17011KT 10SM CLR 26/10 A3000 RMK AO2
KSDA 192215Z AUTO 18010G15KT 10SM CLR 27/10 A3000 RMK AO2
KSDA 192155Z AUTO 18012KT 10SM CLR 27/11 A3000 RMK AO2
KSDA 192135Z AUTO 17011KT 10SM CLR 27/11 A3000 RMK AO2
KSDA 192115Z AUTO 18009G16KT 10SM CLR 27/11 A3001 RMK AO2
KSDA 192055Z AUTO 19009G18KT 10SM CLR 27/11 A3001 RMK AO2
KSDA 192035Z AUTO 18012KT 10SM CLR 27/11 A3001 RMK AO2
KSDA 192015Z AUTO 19013KT 10SM CLR 27/11 A3001 RMK AO2
KSDA 191955Z AUTO 16011KT 10SM CLR 27/11 A3002 RMK AO2
KSDA 191935Z AUTO 16010KT 10SM CLR 26/12 A3002 RMK AO2
KSDA 191915Z AUTO 18007G16KT 150V210 10SM CLR 25/11 A3003 RMK AO2
KSDA 191855Z AUTO 16007G12KT 120V190 10SM CLR 25/12 A3004 RMK AO2
KSDA 191835Z AUTO 16009G15KT 2SM HZ CLR 24/11 A3005 RMK AO2
KSDA 191815Z AUTO 16009KT 130V190 10SM CLR 24/12 A3006 RMK AO2
KSDA 191755Z AUTO 14009KT 10SM CLR 23/12 A3007 RMK AO2
KSDA 191735Z AUTO 13009KT 10SM CLR 23/12 A3007 RMK AO2
KSDA 191715Z AUTO 13006G12KT 10SM CLR 22/12 A3008 RMK AO2
KSDA 191655Z AUTO 13006KT 10SM CLR 22/12 A3009 RMK AO2
KSDA 191635Z AUTO 13007G12KT 090V160 10SM CLR 20/12 A3009 RMK AO2
KSDA 191615Z AUTO 15009KT 10SM CLR 19/12 A3009 RMK AO2
KSDA 191555Z AUTO 13007KT 10SM CLR 18/12 A3010 RMK AO2
KSDA 191535Z AUTO 13008KT 10SM CLR 17/12 A3010 RMK AO2
KSDA 191515Z AUTO 13006KT 10SM CLR 16/12 A3010 RMK AO2
KSDA 191455Z AUTO 13005KT 10SM CLR 15/11 A3010 RMK AO2
KSDA 191435Z AUTO 10005KT 10SM CLR 13/11 A3010 RMK AO2
KSDA 191415Z AUTO 00000KT 10SM CLR 11/10 A3010 RMK AO2
KSDA 191355Z AUTO 04004KT 10SM CLR 09/09 A3010 RMK AO2
KSDA 191335Z AUTO 00000KT 10SM CLR 08/08 A3009 RMK AO2
KSDA 191315Z AUTO 05003KT 9SM CLR 07/07 A3009 RMK AO2
KSDA 191255Z AUTO 04005KT 9SM CLR 07/07 A3008 RMK AO2
KSDA 191235Z AUTO 04005KT 10SM CLR 06/06 A3008 RMK AO2
KSDA 191215Z AUTO 05005KT 10SM CLR 07/06 A3008 RMK AO2
KSDA 191155Z AUTO 04005KT 10SM CLR 07/07 A3008 RMK AO2
KSDA 191135Z AUTO 05005KT 10SM CLR 07/07 A3008 RMK AO2
KSDA 191115Z AUTO 03004KT 10SM CLR 07/07 A3007 RMK AO2
KSDA 191055Z AUTO 04005KT 10SM CLR 07/07 A3007 RMK AO2
KSDA 191035Z AUTO 00000KT 10SM CLR 07/07 A3007 RMK AO2
KSDA 191015Z AUTO 00000KT 10SM CLR 07/06 A3006 RMK AO2
KSDA 190955Z AUTO 04004KT 10SM CLR 07/07 A3006 RMK AO2
KSDA 190935Z AUTO 04003KT 10SM CLR 07/07 A3005 RMK AO2
KSDA 190915Z AUTO 07004KT 10SM CLR 07/07 A3005 RMK AO2
KSDA 190855Z AUTO 04005KT 9SM CLR 08/08 A3005 RMK AO2
KSDA 190835Z AUTO 04003KT 9SM CLR 08/08 A3005 RMK AO2
KSDA 190815Z AUTO 00000KT 9SM CLR 08/07 A3005 RMK AO2
KSDA 190755Z AUTO 00000KT 10SM CLR 08/08 A3005 RMK AO2
KSDA 190735Z AUTO 04003KT 10SM CLR 09/08 A3005 RMK AO2
KSDA 190715Z AUTO 00000KT 10SM CLR 09/08 A3005 RMK AO2
KSDA 190655Z AUTO 00000KT 10SM CLR 09/08 A3005 RMK AO2
KSDA 190635Z AUTO 04004KT 10SM CLR 08/08 A3005 RMK AO2
KSDA 190615Z AUTO 04005KT 10SM CLR 09/08 A3005 RMK AO2
KSDA 190555Z AUTO 05004KT 10SM CLR 09/08 A3005 RMK AO2
KSDA 190535Z AUTO 04004KT 10SM CLR 09/08 A3005 RMK AO2
KSDA 190515Z AUTO 00000KT 10SM CLR 10/09 A3004 RMK AO2
KSDA 190455Z AUTO 00000KT 10SM CLR 10/09 A3004 RMK AO2
KSDA 190435Z AUTO 04005KT 8SM CLR 10/09 A3005 RMK AO2
KSDA 190415Z AUTO 05004KT 10SM CLR 10/09 A3004 RMK AO2
KSDA 190355Z AUTO 04003KT 10SM CLR 10/09 A3004 RMK AO2
KSDA 190335Z AUTO 04003KT 10SM CLR 11/09 A3004 RMK AO2
KSDA 190315Z AUTO 00000KT 10SM CLR 12/10 A3004 RMK AO2
KSDA 190255Z AUTO 00000KT 10SM CLR 11/09 A3003 RMK AO2
KSDA 190235Z AUTO 00000KT 10SM CLR 13/10 A3003 RMK AO2
KSDA 190215Z AUTO 00000KT 10SM CLR 12/10 A3003 RMK AO2
KSDA 190155Z AUTO 00000KT 10SM CLR 12/10 A3002 RMK AO2
KSDA 190135Z AUTO 00000KT 10SM CLR 14/10 A3002 RMK AO2
KSDA 190115Z AUTO 00000KT 10SM CLR 15/10 A3002 RMK AO2
KSDA 190055Z AUTO 00000KT 10SM CLR 15/10 A3001 RMK AO2
KSDA 190035Z AUTO 00000KT 10SM CLR 15/10 A3000 RMK AO2
KSDA 190015Z AUTO 14003KT 10SM CLR 16/10 A3000 RMK AO2
KSDA 182355Z AUTO 16004KT 10SM CLR 18/10 A2999 RMK AO2
KSDA 182335Z AUTO 17005KT 10SM CLR 19/10 A2998 RMK AO2
KSDA 182315Z AUTO 19006KT 10SM CLR 21/10 A2997 RMK AO2
KSDA 182255Z AUTO 20006KT 8SM CLR 22/10 A2997 RMK AO2
KSDA 182235Z AUTO 19007KT 9SM CLR 23/09 A2996 RMK AO2
KSDA 182215Z AUTO 19009KT 10SM CLR 23/09 A2995 RMK AO2
KSDA 182155Z AUTO 10SM CLR 24/09 A2995 RMK AO2
KSDA 182135Z AUTO 10SM CLR 24/09 A2995 RMK AO2
KSDA 182115Z AUTO 21010G15KT 10SM CLR 24/09 A2994 RMK AO2